sensor_id;sensor_type;location;lat;lon;timestamp;P1;durP1;ratioP1;P2;durP2;ratioP2
9270;SDS011;4673;53.458;9.940;2022-10-26T00:01:30;8.13;;;8.03;;
9270;SDS011;4673;53.458;9.940;2022-10-26T00:03:55;7.87;;;7.77;;
9270;SDS011;4673;53.458;9.940;2022-10-26T00:06:22;7.20;;;7.20;;
9270;SDS011;4673;53.458;9.940;2022-10-26T00:08:49;8.03;;;7.93;;
9270;SDS011;4673;53.458;9.940;2022-10-26T00:11:16;7.37;;;7.37;;
9270;SDS011;4673;53.458;9.940;2022-10-26T00:13:43;6.57;;;6.57;;
9270;SDS011;4673;53.458;9.940;2022-10-26T00:16:30;6.33;;;6.33;;
9270;SDS011;4673;53.458;9.940;2022-10-26T00:18:55;6.00;;;6.00;;
9270;SDS011;4673;53.458;9.940;2022-10-26T00:21:21;7.13;;;7.13;;
9270;SDS011;4673;53.458;9.940;2022-10-26T00:23:46;6.47;;;6.47;;
9270;SDS011;4673;53.458;9.940;2022-10-26T00:26:12;6.90;;;6.90;;
9270;SDS011;4673;53.458;9.940;2022-10-26T00:28:37;5.53;;;5.53;;
9270;SDS011;4673;53.458;9.940;2022-10-26T00:31:04;6.27;;;6.27;;
9270;SDS011;4673;53.458;9.940;2022-10-26T00:33:32;6.83;;;6.73;;
9270;SDS011;4673;53.458;9.940;2022-10-26T00:35:58;6.37;;;6.33;;
9270;SDS011;4673;53.458;9.940;2022-10-26T00:38:24;7.50;;;7.50;;
9270;SDS011;4673;53.458;9.940;2022-10-26T00:40:49;6.97;;;6.87;;
9270;SDS011;4673;53.458;9.940;2022-10-26T00:43:31;7.33;;;7.33;;
9270;SDS011;4673;53.458;9.940;2022-10-26T00:46:02;5.63;;;5.63;;
9270;SDS011;4673;53.458;9.940;2022-10-26T00:48:33;6.57;;;6.57;;
9270;SDS011;4673;53.458;9.940;2022-10-26T00:51:03;6.50;;;6.50;;
9270;SDS011;4673;53.458;9.940;2022-10-26T00:53:34;6.23;;;6.13;;
9270;SDS011;4673;53.458;9.940;2022-10-26T00:56:01;6.27;;;6.27;;
9270;SDS011;4673;53.458;9.940;2022-10-26T00:58:27;6.07;;;6.07;;
9270;SDS011;4673;53.458;9.940;2022-10-26T01:00:53;6.70;;;6.70;;
9270;SDS011;4673;53.458;9.940;2022-10-26T01:03:19;6.20;;;6.20;;
9270;SDS011;4673;53.458;9.940;2022-10-26T01:05:46;6.90;;;6.90;;
9270;SDS011;4673;53.458;9.940;2022-10-26T01:08:14;6.63;;;6.60;;
9270;SDS011;4673;53.458;9.940;2022-10-26T01:10:41;7.70;;;7.70;;
9270;SDS011;4673;53.458;9.940;2022-10-26T01:13:07;7.20;;;7.20;;
9270;SDS011;4673;53.458;9.940;2022-10-26T01:29:36;6.90;;;6.80;;
9270;SDS011;4673;53.458;9.940;2022-10-26T01:32:21;7.23;;;7.13;;
9270;SDS011;4673;53.458;9.940;2022-10-26T01:34:54;7.10;;;7.10;;
9270;SDS011;4673;53.458;9.940;2022-10-26T01:37:33;6.37;;;6.37;;
9270;SDS011;4673;53.458;9.940;2022-10-26T01:40:08;6.00;;;6.00;;
9270;SDS011;4673;53.458;9.940;2022-10-26T01:42:42;6.60;;;6.60;;
9270;SDS011;4673;53.458;9.940;2022-10-26T01:45:11;7.27;;;7.27;;
9270;SDS011;4673;53.458;9.940;2022-10-26T01:47:38;6.63;;;6.53;;
9270;SDS011;4673;53.458;9.940;2022-10-26T01:50:05;7.13;;;7.13;;
9270;SDS011;4673;53.458;9.940;2022-10-26T01:52:32;6.53;;;6.53;;
9270;SDS011;4673;53.458;9.940;2022-10-26T01:54:59;6.80;;;6.80;;
9270;SDS011;4673;53.458;9.940;2022-10-26T01:57:25;6.80;;;6.80;;
9270;SDS011;4673;53.458;9.940;2022-10-26T02:00:03;7.30;;;7.20;;
9270;SDS011;4673;53.458;9.940;2022-10-26T02:05:28;6.03;;;6.03;;
9270;SDS011;4673;53.458;9.940;2022-10-26T02:08:09;7.07;;;7.07;;
9270;SDS011;4673;53.458;9.940;2022-10-26T02:13:41;6.13;;;6.13;;
9270;SDS011;4673;53.458;9.940;2022-10-26T02:16:16;6.63;;;6.63;;
9270;SDS011;4673;53.458;9.940;2022-10-26T02:18:46;6.80;;;6.80;;
9270;SDS011;4673;53.458;9.940;2022-10-26T02:21:48;6.43;;;6.43;;
9270;SDS011;4673;53.458;9.940;2022-10-26T02:24:21;6.17;;;6.17;;
9270;SDS011;4673;53.458;9.940;2022-10-26T02:26:48;7.77;;;7.73;;
9270;SDS011;4673;53.458;9.940;2022-10-26T02:29:17;7.07;;;7.07;;
9270;SDS011;4673;53.458;9.940;2022-10-26T02:31:45;8.93;;;8.93;;
9270;SDS011;4673;53.458;9.940;2022-10-26T02:34:12;8.97;;;8.97;;
9270;SDS011;4673;53.458;9.940;2022-10-26T02:36:43;7.43;;;7.43;;
9270;SDS011;4673;53.458;9.940;2022-10-26T02:39:11;7.73;;;7.73;;
9270;SDS011;4673;53.458;9.940;2022-10-26T02:41:40;7.53;;;7.43;;
9270;SDS011;4673;53.458;9.940;2022-10-26T02:44:11;7.23;;;7.23;;
9270;SDS011;4673;53.458;9.940;2022-10-26T02:46:42;7.90;;;7.90;;
9270;SDS011;4673;53.458;9.940;2022-10-26T02:49:08;7.87;;;7.87;;
9270;SDS011;4673;53.458;9.940;2022-10-26T02:56:44;9.23;;;9.13;;
9270;SDS011;4673;53.458;9.940;2022-10-26T02:59:35;10.97;;;10.87;;
9270;SDS011;4673;53.458;9.940;2022-10-26T03:02:04;13.10;;;13.00;;
9270;SDS011;4673;53.458;9.940;2022-10-26T03:04:31;11.80;;;11.70;;
9270;SDS011;4673;53.458;9.940;2022-10-26T03:06:58;11.87;;;11.77;;
9270;SDS011;4673;53.458;9.940;2022-10-26T03:09:25;12.17;;;12.07;;
9270;SDS011;4673;53.458;9.940;2022-10-26T03:11:50;14.63;;;14.53;;
9270;SDS011;4673;53.458;9.940;2022-10-26T03:14:16;13.87;;;13.77;;
9270;SDS011;4673;53.458;9.940;2022-10-26T03:16:42;12.20;;;12.10;;
9270;SDS011;4673;53.458;9.940;2022-10-26T03:19:08;12.87;;;12.77;;
9270;SDS011;4673;53.458;9.940;2022-10-26T03:21:33;12.87;;;12.77;;
9270;SDS011;4673;53.458;9.940;2022-10-26T03:23:59;13.47;;;13.37;;
9270;SDS011;4673;53.458;9.940;2022-10-26T03:26:25;14.23;;;14.13;;
9270;SDS011;4673;53.458;9.940;2022-10-26T03:28:50;12.77;;;12.67;;
9270;SDS011;4673;53.458;9.940;2022-10-26T03:31:16;13.10;;;13.00;;
9270;SDS011;4673;53.458;9.940;2022-10-26T03:33:42;12.67;;;12.57;;
9270;SDS011;4673;53.458;9.940;2022-10-26T03:36:08;12.03;;;11.93;;
9270;SDS011;4673;53.458;9.940;2022-10-26T03:38:34;13.73;;;13.63;;
9270;SDS011;4673;53.458;9.940;2022-10-26T03:40:59;12.97;;;12.87;;
9270;SDS011;4673;53.458;9.940;2022-10-26T03:43:25;12.47;;;12.37;;
9270;SDS011;4673;53.458;9.940;2022-10-26T03:45:51;13.63;;;13.53;;
9270;SDS011;4673;53.458;9.940;2022-10-26T03:48:16;12.00;;;11.90;;
9270;SDS011;4673;53.458;9.940;2022-10-26T03:50:42;11.83;;;11.73;;
9270;SDS011;4673;53.458;9.940;2022-10-26T03:53:09;13.20;;;13.10;;
9270;SDS011;4673;53.458;9.940;2022-10-26T03:55:34;11.90;;;11.80;;
9270;SDS011;4673;53.458;9.940;2022-10-26T03:58:00;12.40;;;12.30;;
9270;SDS011;4673;53.458;9.940;2022-10-26T04:00:26;13.03;;;12.93;;
9270;SDS011;4673;53.458;9.940;2022-10-26T04:02:52;13.53;;;13.43;;
9270;SDS011;4673;53.458;9.940;2022-10-26T04:05:20;12.37;;;12.27;;
9270;SDS011;4673;53.458;9.940;2022-10-26T04:07:52;12.63;;;12.53;;
9270;SDS011;4673;53.458;9.940;2022-10-26T04:10:19;13.40;;;13.30;;
9270;SDS011;4673;53.458;9.940;2022-10-26T04:12:45;12.53;;;12.43;;
9270;SDS011;4673;53.458;9.940;2022-10-26T04:15:11;12.60;;;12.50;;
9270;SDS011;4673;53.458;9.940;2022-10-26T04:17:36;13.57;;;13.47;;
9270;SDS011;4673;53.458;9.940;2022-10-26T04:20:02;12.00;;;11.90;;
9270;SDS011;4673;53.458;9.940;2022-10-26T04:22:28;13.93;;;13.83;;
9270;SDS011;4673;53.458;9.940;2022-10-26T04:24:54;12.33;;;12.23;;
9270;SDS011;4673;53.458;9.940;2022-10-26T04:27:19;14.50;;;14.40;;
9270;SDS011;4673;53.458;9.940;2022-10-26T04:29:45;13.33;;;13.23;;
9270;SDS011;4673;53.458;9.940;2022-10-26T04:32:11;13.10;;;13.00;;
9270;SDS011;4673;53.458;9.940;2022-10-26T04:34:36;12.90;;;12.80;;
9270;SDS011;4673;53.458;9.940;2022-10-26T04:37:02;13.67;;;13.57;;
9270;SDS011;4673;53.458;9.940;2022-10-26T04:39:28;12.60;;;12.50;;
9270;SDS011;4673;53.458;9.940;2022-10-26T04:41:53;12.53;;;12.43;;
9270;SDS011;4673;53.458;9.940;2022-10-26T04:44:19;13.77;;;13.67;;
9270;SDS011;4673;53.458;9.940;2022-10-26T04:46:44;12.90;;;12.80;;
9270;SDS011;4673;53.458;9.940;2022-10-26T04:49:10;12.13;;;12.03;;
9270;SDS011;4673;53.458;9.940;2022-10-26T04:51:36;12.07;;;11.97;;
9270;SDS011;4673;53.458;9.940;2022-10-26T04:54:01;14.07;;;13.97;;
9270;SDS011;4673;53.458;9.940;2022-10-26T04:56:27;12.63;;;12.53;;
9270;SDS011;4673;53.458;9.940;2022-10-26T04:58:53;12.33;;;12.23;;
9270;SDS011;4673;53.458;9.940;2022-10-26T05:01:19;11.70;;;11.60;;
9270;SDS011;4673;53.458;9.940;2022-10-26T05:03:51;11.73;;;11.63;;
9270;SDS011;4673;53.458;9.940;2022-10-26T05:06:18;12.83;;;12.73;;
9270;SDS011;4673;53.458;9.940;2022-10-26T05:08:44;10.73;;;10.63;;
9270;SDS011;4673;53.458;9.940;2022-10-26T05:11:09;12.70;;;12.60;;
9270;SDS011;4673;53.458;9.940;2022-10-26T05:13:35;11.93;;;11.83;;
9270;SDS011;4673;53.458;9.940;2022-10-26T05:16:01;12.07;;;11.97;;
9270;SDS011;4673;53.458;9.940;2022-10-26T05:18:26;11.13;;;11.03;;
9270;SDS011;4673;53.458;9.940;2022-10-26T05:20:52;12.20;;;12.10;;
9270;SDS011;4673;53.458;9.940;2022-10-26T05:23:18;11.57;;;11.47;;
9270;SDS011;4673;53.458;9.940;2022-10-26T05:25:44;11.80;;;11.67;;
9270;SDS011;4673;53.458;9.940;2022-10-26T05:28:11;12.20;;;12.10;;
9270;SDS011;4673;53.458;9.940;2022-10-26T05:30:38;11.13;;;11.03;;
9270;SDS011;4673;53.458;9.940;2022-10-26T05:33:05;11.57;;;11.47;;
9270;SDS011;4673;53.458;9.940;2022-10-26T05:35:31;12.20;;;12.10;;
9270;SDS011;4673;53.458;9.940;2022-10-26T05:37:57;10.93;;;10.83;;
9270;SDS011;4673;53.458;9.940;2022-10-26T05:40:23;11.97;;;11.87;;
9270;SDS011;4673;53.458;9.940;2022-10-26T05:42:49;15.17;;;15.07;;
9270;SDS011;4673;53.458;9.940;2022-10-26T05:45:15;13.23;;;13.13;;
9270;SDS011;4673;53.458;9.940;2022-10-26T05:47:44;10.57;;;10.47;;
9270;SDS011;4673;53.458;9.940;2022-10-26T05:50:11;13.07;;;12.97;;
9270;SDS011;4673;53.458;9.940;2022-10-26T05:52:40;11.60;;;11.50;;
9270;SDS011;4673;53.458;9.940;2022-10-26T05:55:08;12.87;;;12.77;;
9270;SDS011;4673;53.458;9.940;2022-10-26T05:57:35;11.80;;;11.70;;
9270;SDS011;4673;53.458;9.940;2022-10-26T06:00:02;12.47;;;12.37;;
9270;SDS011;4673;53.458;9.940;2022-10-26T06:02:32;11.23;;;11.13;;
9270;SDS011;4673;53.458;9.940;2022-10-26T06:05:03;11.53;;;11.43;;
9270;SDS011;4673;53.458;9.940;2022-10-26T06:07:30;12.50;;;12.40;;
9270;SDS011;4673;53.458;9.940;2022-10-26T06:09:57;12.03;;;11.93;;
9270;SDS011;4673;53.458;9.940;2022-10-26T06:12:23;11.83;;;11.73;;
9270;SDS011;4673;53.458;9.940;2022-10-26T06:14:50;12.90;;;12.80;;
9270;SDS011;4673;53.458;9.940;2022-10-26T06:25:27;12.73;;;12.63;;
9270;SDS011;4673;53.458;9.940;2022-10-26T06:30:45;12.33;;;12.23;;
9270;SDS011;4673;53.458;9.940;2022-10-26T06:33:11;12.20;;;12.10;;
9270;SDS011;4673;53.458;9.940;2022-10-26T06:38:06;12.30;;;12.20;;
9270;SDS011;4673;53.458;9.940;2022-10-26T06:40:36;11.87;;;11.77;;
9270;SDS011;4673;53.458;9.940;2022-10-26T06:43:03;12.50;;;12.40;;
9270;SDS011;4673;53.458;9.940;2022-10-26T06:45:41;12.47;;;12.37;;
9270;SDS011;4673;53.458;9.940;2022-10-26T06:48:13;10.93;;;10.83;;
9270;SDS011;4673;53.458;9.940;2022-10-26T06:50:46;10.60;;;10.50;;
9270;SDS011;4673;53.458;9.940;2022-10-26T06:53:26;10.90;;;10.80;;
9270;SDS011;4673;53.458;9.940;2022-10-26T06:55:57;12.10;;;12.00;;
9270;SDS011;4673;53.458;9.940;2022-10-26T06:58:24;10.30;;;10.20;;
9270;SDS011;4673;53.458;9.940;2022-10-26T07:00:54;11.53;;;11.43;;
9270;SDS011;4673;53.458;9.940;2022-10-26T07:03:20;11.57;;;11.47;;
9270;SDS011;4673;53.458;9.940;2022-10-26T07:05:46;11.47;;;11.40;;
9270;SDS011;4673;53.458;9.940;2022-10-26T07:08:12;11.83;;;11.73;;
9270;SDS011;4673;53.458;9.940;2022-10-26T07:10:37;11.03;;;10.93;;
9270;SDS011;4673;53.458;9.940;2022-10-26T07:13:04;10.90;;;10.80;;
9270;SDS011;4673;53.458;9.940;2022-10-26T07:15:31;11.60;;;11.50;;
9270;SDS011;4673;53.458;9.940;2022-10-26T07:17:57;10.07;;;9.97;;
9270;SDS011;4673;53.458;9.940;2022-10-26T07:20:23;10.73;;;10.63;;
9270;SDS011;4673;53.458;9.940;2022-10-26T07:22:52;9.77;;;9.77;;
9270;SDS011;4673;53.458;9.940;2022-10-26T07:25:19;12.13;;;12.03;;
9270;SDS011;4673;53.458;9.940;2022-10-26T07:27:44;10.80;;;10.80;;
9270;SDS011;4673;53.458;9.940;2022-10-26T07:30:10;10.70;;;10.60;;
9270;SDS011;4673;53.458;9.940;2022-10-26T07:32:36;9.37;;;9.30;;
9270;SDS011;4673;53.458;9.940;2022-10-26T07:35:02;10.60;;;10.50;;
9270;SDS011;4673;53.458;9.940;2022-10-26T07:37:28;9.43;;;9.33;;
9270;SDS011;4673;53.458;9.940;2022-10-26T07:39:54;9.90;;;9.80;;
9270;SDS011;4673;53.458;9.940;2022-10-26T07:42:19;10.37;;;10.27;;
9270;SDS011;4673;53.458;9.940;2022-10-26T07:44:45;10.47;;;10.37;;
9270;SDS011;4673;53.458;9.940;2022-10-26T07:47:11;10.07;;;9.97;;
9270;SDS011;4673;53.458;9.940;2022-10-26T07:49:36;10.20;;;10.10;;
9270;SDS011;4673;53.458;9.940;2022-10-26T07:52:02;10.23;;;10.03;;
9270;SDS011;4673;53.458;9.940;2022-10-26T07:54:28;10.07;;;9.97;;
9270;SDS011;4673;53.458;9.940;2022-10-26T07:56:53;10.37;;;10.37;;
9270;SDS011;4673;53.458;9.940;2022-10-26T07:59:19;9.43;;;9.43;;
9270;SDS011;4673;53.458;9.940;2022-10-26T08:01:45;9.10;;;9.10;;
9270;SDS011;4673;53.458;9.940;2022-10-26T08:04:10;9.40;;;9.40;;
9270;SDS011;4673;53.458;9.940;2022-10-26T08:06:36;10.00;;;9.97;;
9270;SDS011;4673;53.458;9.940;2022-10-26T08:09:02;10.03;;;10.03;;
9270;SDS011;4673;53.458;9.940;2022-10-26T08:11:28;9.90;;;9.90;;
9270;SDS011;4673;53.458;9.940;2022-10-26T08:13:53;10.47;;;10.47;;
9270;SDS011;4673;53.458;9.940;2022-10-26T08:16:20;10.70;;;10.60;;
9270;SDS011;4673;53.458;9.940;2022-10-26T08:18:47;9.57;;;9.57;;
9270;SDS011;4673;53.458;9.940;2022-10-26T08:21:13;10.40;;;10.40;;
9270;SDS011;4673;53.458;9.940;2022-10-26T08:23:39;10.63;;;10.53;;
9270;SDS011;4673;53.458;9.940;2022-10-26T08:26:05;10.27;;;10.27;;
9270;SDS011;4673;53.458;9.940;2022-10-26T08:28:31;12.33;;;12.23;;
9270;SDS011;4673;53.458;9.940;2022-10-26T08:30:57;11.30;;;11.20;;
9270;SDS011;4673;53.458;9.940;2022-10-26T08:33:23;10.40;;;10.40;;
9270;SDS011;4673;53.458;9.940;2022-10-26T08:35:53;11.93;;;11.83;;
9270;SDS011;4673;53.458;9.940;2022-10-26T08:38:20;11.77;;;11.67;;
9270;SDS011;4673;53.458;9.940;2022-10-26T08:40:45;11.33;;;11.23;;
9270;SDS011;4673;53.458;9.940;2022-10-26T08:43:19;10.77;;;10.67;;
9270;SDS011;4673;53.458;9.940;2022-10-26T08:46:07;10.47;;;10.40;;
9270;SDS011;4673;53.458;9.940;2022-10-26T08:48:39;10.57;;;10.53;;
9270;SDS011;4673;53.458;9.940;2022-10-26T08:51:14;11.03;;;10.93;;
9270;SDS011;4673;53.458;9.940;2022-10-26T08:56:28;11.87;;;11.77;;
9270;SDS011;4673;53.458;9.940;2022-10-26T09:01:49;12.03;;;11.93;;
9270;SDS011;4673;53.458;9.940;2022-10-26T09:04:15;11.60;;;11.50;;
9270;SDS011;4673;53.458;9.940;2022-10-26T09:09:33;12.53;;;12.43;;
9270;SDS011;4673;53.458;9.940;2022-10-26T09:20:01;10.07;;;9.97;;
9270;SDS011;4673;53.458;9.940;2022-10-26T09:22:56;10.10;;;10.10;;
9270;SDS011;4673;53.458;9.940;2022-10-26T09:25:39;9.90;;;9.80;;
9270;SDS011;4673;53.458;9.940;2022-10-26T09:28:11;8.33;;;8.33;;
9270;SDS011;4673;53.458;9.940;2022-10-26T09:30:42;8.60;;;8.50;;
9270;SDS011;4673;53.458;9.940;2022-10-26T09:33:11;8.97;;;8.97;;
9270;SDS011;4673;53.458;9.940;2022-10-26T09:40:55;8.80;;;8.80;;
9270;SDS011;4673;53.458;9.940;2022-10-26T09:43:31;7.80;;;7.80;;
9270;SDS011;4673;53.458;9.940;2022-10-26T09:46:02;8.20;;;8.20;;
9270;SDS011;4673;53.458;9.940;2022-10-26T09:48:32;8.50;;;8.50;;
9270;SDS011;4673;53.458;9.940;2022-10-26T09:51:07;8.20;;;8.20;;
9270;SDS011;4673;53.458;9.940;2022-10-26T09:53:33;8.53;;;8.53;;
9270;SDS011;4673;53.458;9.940;2022-10-26T09:56:00;9.03;;;8.97;;
9270;SDS011;4673;53.458;9.940;2022-10-26T09:58:30;9.10;;;9.00;;
9270;SDS011;4673;53.458;9.940;2022-10-26T10:01:00;9.27;;;9.27;;
9270;SDS011;4673;53.458;9.940;2022-10-26T10:03:26;9.77;;;9.73;;
9270;SDS011;4673;53.458;9.940;2022-10-26T10:08:40;8.27;;;8.17;;
9270;SDS011;4673;53.458;9.940;2022-10-26T10:11:13;9.73;;;9.73;;
9270;SDS011;4673;53.458;9.940;2022-10-26T10:13:39;8.70;;;8.70;;
9270;SDS011;4673;53.458;9.940;2022-10-26T10:16:20;8.17;;;8.17;;
9270;SDS011;4673;53.458;9.940;2022-10-26T10:18:54;8.90;;;8.83;;
9270;SDS011;4673;53.458;9.940;2022-10-26T10:21:38;9.30;;;9.20;;
9270;SDS011;4673;53.458;9.940;2022-10-26T10:26:55;8.87;;;8.80;;
9270;SDS011;4673;53.458;9.940;2022-10-26T10:29:26;9.13;;;9.13;;
9270;SDS011;4673;53.458;9.940;2022-10-26T10:31:57;9.17;;;9.17;;
9270;SDS011;4673;53.458;9.940;2022-10-26T10:34:24;10.67;;;10.57;;
9270;SDS011;4673;53.458;9.940;2022-10-26T10:36:50;9.00;;;8.90;;
9270;SDS011;4673;53.458;9.940;2022-10-26T10:39:30;9.13;;;9.13;;
9270;SDS011;4673;53.458;9.940;2022-10-26T10:42:26;8.67;;;8.67;;
9270;SDS011;4673;53.458;9.940;2022-10-26T10:44:52;8.05;;;8.05;;
9270;SDS011;4673;53.458;9.940;2022-10-26T10:47:23;8.65;;;8.63;;
9270;SDS011;4673;53.458;9.940;2022-10-26T10:52:24;8.23;;;8.17;;
9270;SDS011;4673;53.458;9.940;2022-10-26T11:00:21;7.25;;;7.25;;
9270;SDS011;4673;53.458;9.940;2022-10-26T11:02:54;7.28;;;7.28;;
9270;SDS011;4673;53.458;9.940;2022-10-26T11:08:22;5.43;;;5.43;;
9270;SDS011;4673;53.458;9.940;2022-10-26T11:10:57;4.82;;;4.82;;
9270;SDS011;4673;53.458;9.940;2022-10-26T11:16:22;4.70;;;4.70;;
9270;SDS011;4673;53.458;9.940;2022-10-26T11:18:57;5.20;;;5.20;;
9270;SDS011;4673;53.458;9.940;2022-10-26T11:21:43;4.70;;;4.70;;
9270;SDS011;4673;53.458;9.940;2022-10-26T11:24:17;4.43;;;4.43;;
9270;SDS011;4673;53.458;9.940;2022-10-26T11:26:55;4.85;;;4.85;;
9270;SDS011;4673;53.458;9.940;2022-10-26T11:29:37;4.15;;;4.15;;
9270;SDS011;4673;53.458;9.940;2022-10-26T11:37:34;3.88;;;3.88;;
9270;SDS011;4673;53.458;9.940;2022-10-26T11:40:21;3.47;;;3.47;;
9270;SDS011;4673;53.458;9.940;2022-10-26T11:43:04;3.38;;;3.38;;
9270;SDS011;4673;53.458;9.940;2022-10-26T11:45:43;3.47;;;3.47;;
9270;SDS011;4673;53.458;9.940;2022-10-26T11:50:52;3.15;;;3.15;;
9270;SDS011;4673;53.458;9.940;2022-10-26T11:53:31;2.75;;;2.75;;
9270;SDS011;4673;53.458;9.940;2022-10-26T11:56:03;3.10;;;3.10;;
9270;SDS011;4673;53.458;9.940;2022-10-26T11:58:34;3.20;;;3.20;;
9270;SDS011;4673;53.458;9.940;2022-10-26T12:01:07;2.85;;;2.85;;
9270;SDS011;4673;53.458;9.940;2022-10-26T12:03:36;2.97;;;2.97;;
9270;SDS011;4673;53.458;9.940;2022-10-26T12:06:09;4.05;;;4.05;;
9270;SDS011;4673;53.458;9.940;2022-10-26T12:08:39;2.92;;;2.92;;
9270;SDS011;4673;53.458;9.940;2022-10-26T12:14:00;2.60;;;2.60;;
9270;SDS011;4673;53.458;9.940;2022-10-26T12:22:08;2.55;;;2.55;;
9270;SDS011;4673;53.458;9.940;2022-10-26T12:24:41;2.97;;;2.97;;
9270;SDS011;4673;53.458;9.940;2022-10-26T12:27:19;2.83;;;2.83;;
9270;SDS011;4673;53.458;9.940;2022-10-26T12:35:30;3.05;;;3.05;;
9270;SDS011;4673;53.458;9.940;2022-10-26T12:37:56;2.70;;;2.70;;
9270;SDS011;4673;53.458;9.940;2022-10-26T12:40:41;2.90;;;2.90;;
9270;SDS011;4673;53.458;9.940;2022-10-26T12:45:39;2.08;;;2.08;;
9270;SDS011;4673;53.458;9.940;2022-10-26T12:48:22;1.80;;;1.80;;
9270;SDS011;4673;53.458;9.940;2022-10-26T12:53:58;1.80;;;1.80;;
9270;SDS011;4673;53.458;9.940;2022-10-26T12:56:35;1.77;;;1.77;;
9270;SDS011;4673;53.458;9.940;2022-10-26T12:59:25;1.60;;;1.60;;
9270;SDS011;4673;53.458;9.940;2022-10-26T13:02:15;2.00;;;2.00;;
9270;SDS011;4673;53.458;9.940;2022-10-26T13:04:49;1.85;;;1.85;;
9270;SDS011;4673;53.458;9.940;2022-10-26T13:07:35;1.70;;;1.70;;
9270;SDS011;4673;53.458;9.940;2022-10-26T13:15:18;1.63;;;1.63;;
9270;SDS011;4673;53.458;9.940;2022-10-26T13:17:58;2.17;;;2.17;;
9270;SDS011;4673;53.458;9.940;2022-10-26T13:20:31;1.52;;;1.52;;
9270;SDS011;4673;53.458;9.940;2022-10-26T13:22:58;1.83;;;1.83;;
9270;SDS011;4673;53.458;9.940;2022-10-26T13:30:44;1.65;;;1.65;;
9270;SDS011;4673;53.458;9.940;2022-10-26T13:33:13;1.85;;;1.85;;
9270;SDS011;4673;53.458;9.940;2022-10-26T13:35:44;1.60;;;1.60;;
9270;SDS011;4673;53.458;9.940;2022-10-26T13:38:10;2.15;;;2.15;;
9270;SDS011;4673;53.458;9.940;2022-10-26T13:40:40;2.10;;;2.10;;
9270;SDS011;4673;53.458;9.940;2022-10-26T13:43:10;2.25;;;2.25;;
9270;SDS011;4673;53.458;9.940;2022-10-26T13:45:59;1.55;;;1.55;;
9270;SDS011;4673;53.458;9.940;2022-10-26T13:48:36;1.85;;;1.85;;
9270;SDS011;4673;53.458;9.940;2022-10-26T13:51:09;1.50;;;1.50;;
9270;SDS011;4673;53.458;9.940;2022-10-26T13:53:56;2.45;;;2.45;;
9270;SDS011;4673;53.458;9.940;2022-10-26T13:56:30;1.60;;;1.60;;
9270;SDS011;4673;53.458;9.940;2022-10-26T13:59:07;1.85;;;1.85;;
9270;SDS011;4673;53.458;9.940;2022-10-26T14:01:35;1.50;;;1.50;;
9270;SDS011;4673;53.458;9.940;2022-10-26T14:04:13;2.25;;;2.25;;
9270;SDS011;4673;53.458;9.940;2022-10-26T14:06:48;1.60;;;1.60;;
9270;SDS011;4673;53.458;9.940;2022-10-26T14:09:15;2.35;;;2.35;;
9270;SDS011;4673;53.458;9.940;2022-10-26T14:11:43;3.10;;;3.10;;
9270;SDS011;4673;53.458;9.940;2022-10-26T14:14:18;1.40;;;1.40;;
9270;SDS011;4673;53.458;9.940;2022-10-26T14:16:46;1.80;;;1.80;;
9270;SDS011;4673;53.458;9.940;2022-10-26T14:19:25;1.52;;;1.52;;
9270;SDS011;4673;53.458;9.940;2022-10-26T14:21:53;1.55;;;1.55;;
9270;SDS011;4673;53.458;9.940;2022-10-26T14:24:20;1.60;;;1.60;;
9270;SDS011;4673;53.458;9.940;2022-10-26T14:26:47;1.42;;;1.42;;
9270;SDS011;4673;53.458;9.940;2022-10-26T14:29:15;1.95;;;1.95;;
9270;SDS011;4673;53.458;9.940;2022-10-26T14:31:42;1.92;;;1.92;;
9270;SDS011;4673;53.458;9.940;2022-10-26T14:34:08;2.05;;;2.05;;
9270;SDS011;4673;53.458;9.940;2022-10-26T14:36:36;1.67;;;1.67;;
9270;SDS011;4673;53.458;9.940;2022-10-26T14:41:55;1.70;;;1.70;;
9270;SDS011;4673;53.458;9.940;2022-10-26T14:44:22;2.22;;;2.22;;
9270;SDS011;4673;53.458;9.940;2022-10-26T14:46:49;1.60;;;1.60;;
9270;SDS011;4673;53.458;9.940;2022-10-26T14:49:25;2.20;;;2.20;;
9270;SDS011;4673;53.458;9.940;2022-10-26T14:51:59;1.40;;;1.40;;
9270;SDS011;4673;53.458;9.940;2022-10-26T14:54:30;2.22;;;2.22;;
9270;SDS011;4673;53.458;9.940;2022-10-26T14:56:57;1.70;;;1.70;;
9270;SDS011;4673;53.458;9.940;2022-10-26T14:59:27;1.90;;;1.90;;
9270;SDS011;4673;53.458;9.940;2022-10-26T15:01:58;1.48;;;1.48;;
9270;SDS011;4673;53.458;9.940;2022-10-26T15:04:36;1.98;;;1.98;;
9270;SDS011;4673;53.458;9.940;2022-10-26T15:07:16;2.10;;;2.10;;
9270;SDS011;4673;53.458;9.940;2022-10-26T15:14:55;1.98;;;1.98;;
9270;SDS011;4673;53.458;9.940;2022-10-26T15:17:26;1.73;;;1.73;;
9270;SDS011;4673;53.458;9.940;2022-10-26T15:20:01;1.60;;;1.60;;
9270;SDS011;4673;53.458;9.940;2022-10-26T15:22:29;1.98;;;1.98;;
9270;SDS011;4673;53.458;9.940;2022-10-26T15:24:56;1.63;;;1.63;;
9270;SDS011;4673;53.458;9.940;2022-10-26T15:27:24;1.85;;;1.85;;
9270;SDS011;4673;53.458;9.940;2022-10-26T15:32:45;1.83;;;1.83;;
9270;SDS011;4673;53.458;9.940;2022-10-26T15:37:43;1.85;;;1.85;;
9270;SDS011;4673;53.458;9.940;2022-10-26T15:40:12;1.90;;;1.90;;
9270;SDS011;4673;53.458;9.940;2022-10-26T15:42:38;1.90;;;1.90;;
9270;SDS011;4673;53.458;9.940;2022-10-26T15:45:16;1.83;;;1.83;;
9270;SDS011;4673;53.458;9.940;2022-10-26T15:47:51;1.90;;;1.90;;
9270;SDS011;4673;53.458;9.940;2022-10-26T15:50:20;2.40;;;2.40;;
9270;SDS011;4673;53.458;9.940;2022-10-26T15:52:55;2.13;;;2.13;;
9270;SDS011;4673;53.458;9.940;2022-10-26T15:55:25;2.55;;;2.55;;
9270;SDS011;4673;53.458;9.940;2022-10-26T15:57:52;2.28;;;2.28;;
9270;SDS011;4673;53.458;9.940;2022-10-26T16:00:18;2.03;;;2.03;;
9270;SDS011;4673;53.458;9.940;2022-10-26T16:02:44;2.47;;;2.47;;
9270;SDS011;4673;53.458;9.940;2022-10-26T16:05:11;2.72;;;2.72;;
9270;SDS011;4673;53.458;9.940;2022-10-26T16:07:40;2.75;;;2.75;;
9270;SDS011;4673;53.458;9.940;2022-10-26T16:10:17;2.35;;;2.35;;
9270;SDS011;4673;53.458;9.940;2022-10-26T16:12:46;2.83;;;2.83;;
9270;SDS011;4673;53.458;9.940;2022-10-26T16:15:14;2.45;;;2.45;;
9270;SDS011;4673;53.458;9.940;2022-10-26T16:17:48;2.13;;;2.13;;
9270;SDS011;4673;53.458;9.940;2022-10-26T16:20:16;2.30;;;2.30;;
9270;SDS011;4673;53.458;9.940;2022-10-26T16:22:45;3.20;;;3.20;;
9270;SDS011;4673;53.458;9.940;2022-10-26T16:25:13;2.38;;;2.38;;
9270;SDS011;4673;53.458;9.940;2022-10-26T16:27:43;2.30;;;2.30;;
9270;SDS011;4673;53.458;9.940;2022-10-26T16:30:10;2.85;;;2.85;;
9270;SDS011;4673;53.458;9.940;2022-10-26T16:32:37;3.05;;;3.05;;
9270;SDS011;4673;53.458;9.940;2022-10-26T16:35:03;2.60;;;2.60;;
9270;SDS011;4673;53.458;9.940;2022-10-26T16:37:29;2.70;;;2.70;;
9270;SDS011;4673;53.458;9.940;2022-10-26T16:39:55;2.42;;;2.42;;
9270;SDS011;4673;53.458;9.940;2022-10-26T16:42:21;3.10;;;3.10;;
9270;SDS011;4673;53.458;9.940;2022-10-26T16:44:47;2.40;;;2.40;;
9270;SDS011;4673;53.458;9.940;2022-10-26T16:47:13;2.65;;;2.65;;
9270;SDS011;4673;53.458;9.940;2022-10-26T16:49:38;3.30;;;3.30;;
9270;SDS011;4673;53.458;9.940;2022-10-26T16:52:07;3.17;;;3.17;;
9270;SDS011;4673;53.458;9.940;2022-10-26T16:54:33;2.88;;;2.88;;
9270;SDS011;4673;53.458;9.940;2022-10-26T16:56:58;3.17;;;3.17;;
9270;SDS011;4673;53.458;9.940;2022-10-26T16:59:24;2.97;;;2.97;;
9270;SDS011;4673;53.458;9.940;2022-10-26T17:01:50;2.90;;;2.90;;
9270;SDS011;4673;53.458;9.940;2022-10-26T17:04:15;2.70;;;2.70;;
9270;SDS011;4673;53.458;9.940;2022-10-26T17:06:41;2.97;;;2.97;;
9270;SDS011;4673;53.458;9.940;2022-10-26T17:09:07;3.03;;;3.03;;
9270;SDS011;4673;53.458;9.940;2022-10-26T17:11:32;2.58;;;2.58;;
9270;SDS011;4673;53.458;9.940;2022-10-26T17:13:58;4.25;;;4.25;;
9270;SDS011;4673;53.458;9.940;2022-10-26T17:16:24;3.00;;;3.00;;
9270;SDS011;4673;53.458;9.940;2022-10-26T17:18:50;3.20;;;3.20;;
9270;SDS011;4673;53.458;9.940;2022-10-26T17:21:17;3.42;;;3.42;;
9270;SDS011;4673;53.458;9.940;2022-10-26T17:23:44;3.33;;;3.33;;
9270;SDS011;4673;53.458;9.940;2022-10-26T17:26:11;2.80;;;2.80;;
9270;SDS011;4673;53.458;9.940;2022-10-26T17:28:38;3.10;;;3.10;;
9270;SDS011;4673;53.458;9.940;2022-10-26T17:31:13;2.90;;;2.90;;